Terminal Aerodrome Forecast
Issued by NWS

Home | Current Version | Previous Version | Text Only | Print | Product List | Glossary On
Versions: 1 2 3 4 5 6 7 8 9 10 11 12 13 14 15 16
000
FTUS45 KPIH 262300
TAFSUN
TAF
KSUN 262320Z 2700/2724 13006KT P6SM SCT150
     FM270200 31010KT P6SM SCT100
     FM272000 14008KT P6SM BKN005 OVC030
      AMD LTD TO CLD VIS AND WIND 2706/2714=

USA.gov is the U.S. government's official web portal to all federal, state and local government web resources and services.